< < Back
Terminal Aerodrome Forecast


Current Version              Previous Versions:   1  2  3  4  5  6  7  8  9  

Terminal Aerodrome Forecast

470
FTUS42 KJAX 011721
TAFJAX
TAF
KJAX 011721Z 0118/0218 26011KT P6SM VCTS SCT040CB SCT250
     FM020000 24007KT P6SM SCT040 BKN150
     FM020300 23003KT P6SM SCT150
     FM021400 25007KT P6SM SCT030 SCT250=

Latest METAR

736
SAUS80 KWBC 012300 RRH
MTRJAX
METAR KJAX 012256Z 26010KT 10SM FEW055 SCT250 32/19 A3002 RMK AO2 SLP164
CB DSNT SE T03220194


USA.gov is the U.S. government's official web portal to all federal, state and local government web resources and services.